createdAt,value
2022-10-30T00:00:59.130Z,83.38
2022-10-30T00:02:01.642Z,83.18
2022-10-30T00:03:04.423Z,83.24
2022-10-30T00:04:06.711Z,83.43
2022-10-30T00:05:10.126Z,83.41
2022-10-30T00:06:12.451Z,83.59
2022-10-30T00:07:14.674Z,83.44
2022-10-30T00:08:19.983Z,83.20
2022-10-30T00:09:22.198Z,82.96
2022-10-30T00:10:24.662Z,82.98
2022-10-30T00:11:29.932Z,83.12
2022-10-30T00:12:32.119Z,83.38
2022-10-30T00:13:34.799Z,83.40
2022-10-30T00:14:37.054Z,83.59
2022-10-30T00:15:39.516Z,83.62
2022-10-30T00:16:41.673Z,83.59
2022-10-30T00:17:44.006Z,83.90
2022-10-30T00:18:46.655Z,83.83
2022-10-30T00:19:48.825Z,83.91
2022-10-30T00:20:51.052Z,83.67
2022-10-30T00:21:53.264Z,83.58
2022-10-30T00:22:55.769Z,83.39
2022-10-30T00:23:58.540Z,83.46
2022-10-30T00:25:00.706Z,83.76
2022-10-30T00:26:04.966Z,83.72
2022-10-30T00:27:07.466Z,83.71
2022-10-30T00:28:12.289Z,83.79
2022-10-30T00:29:14.844Z,83.65
2022-10-30T00:30:18.817Z,83.49
2022-10-30T00:31:21.849Z,83.34
2022-10-30T00:32:24.549Z,83.10
2022-10-30T00:33:26.718Z,83.06
2022-10-30T00:34:29.431Z,82.87
2022-10-30T00:35:32.585Z,82.75
2022-10-30T00:36:35.041Z,82.55
2022-10-30T00:37:37.389Z,82.77
2022-10-30T00:38:39.921Z,82.82
2022-10-30T00:39:42.262Z,82.98
2022-10-30T00:40:44.422Z,83.71
2022-10-30T00:41:46.997Z,84.26
2022-10-30T00:42:49.158Z,84.15
2022-10-30T00:43:52.046Z,84.29
2022-10-30T00:44:54.366Z,84.55
2022-10-30T00:46:03.665Z,84.43
2022-10-30T00:47:37.496Z,84.13
2022-10-30T00:48:40.094Z,83.99
2022-10-30T00:50:09.198Z,83.87
2022-10-30T00:51:13.857Z,83.67
2022-10-30T00:52:16.516Z,83.81
2022-10-30T00:53:20.597Z,83.85
2022-10-30T00:54:24.033Z,84.09
2022-10-30T00:55:54.188Z,84.15
2022-10-30T00:57:01.236Z,84.30
2022-10-30T00:58:09.378Z,84.32
2022-10-30T00:59:15.750Z,84.33
2022-10-30T01:00:21.235Z,84.10
2022-10-30T01:01:26.883Z,84.15
2022-10-30T01:02:29.381Z,84.08
2022-10-30T01:03:33.198Z,84.00
2022-10-30T01:04:41.364Z,83.71
2022-10-30T01:05:49.063Z,83.71
2022-10-30T01:06:53.119Z,83.58
2022-10-30T01:07:55.720Z,83.45
2022-10-30T01:09:02.789Z,83.31
2022-10-30T01:10:08.617Z,83.39
2022-10-30T01:11:12.192Z,83.36
2022-10-30T01:12:16.924Z,84.20
2022-10-30T01:13:22.766Z,84.84
2022-10-30T01:14:25.200Z,85.74
2022-10-30T01:15:33.248Z,86.35
2022-10-30T01:17:21.525Z,86.38
2022-10-30T01:18:48.991Z,86.18
2022-10-30T01:20:06.652Z,85.98
2022-10-30T01:21:50.423Z,85.77
2022-10-30T01:22:52.562Z,85.36
2022-10-30T01:24:19.304Z,85.45
2022-10-30T01:25:55.884Z,85.10
2022-10-30T01:27:18.716Z,85.08
2022-10-30T01:28:39.322Z,85.02
2022-10-30T01:30:30.339Z,85.44
2022-10-30T01:31:57.659Z,85.83
2022-10-30T01:33:26.961Z,85.64
2022-10-30T01:34:49.796Z,85.31
2022-10-30T01:36:01.057Z,85.48
2022-10-30T01:37:09.970Z,85.62
2022-10-30T01:38:26.673Z,85.31
2022-10-30T01:39:35.245Z,85.07
2022-10-30T01:40:37.865Z,85.11
2022-10-30T01:41:40.455Z,85.27
2022-10-30T01:42:54.904Z,85.06
2022-10-30T01:44:26.427Z,84.92
2022-10-30T01:45:42.991Z,84.77
2022-10-30T01:46:51.393Z,84.70
2022-10-30T01:48:06.549Z,84.80
2022-10-30T01:51:09.002Z,84.67
2022-10-30T01:52:39.639Z,84.58
2022-10-30T01:54:08.287Z,84.35
2022-10-30T01:55:22.806Z,84.11
2022-10-30T01:56:54.838Z,84.16
2022-10-30T01:58:41.471Z,84.09
2022-10-30T01:59:59.745Z,84.04
2022-10-30T02:01:02.915Z,83.88
2022-10-30T02:02:06.369Z,83.86
2022-10-30T02:03:09.384Z,83.49
2022-10-30T02:04:13.841Z,83.39
2022-10-30T02:05:48.013Z,83.28
2022-10-30T02:06:52.672Z,83.16
2022-10-30T02:07:56.167Z,83.13
2022-10-30T02:08:59.895Z,83.07
2022-10-30T02:10:02.503Z,82.93
2022-10-30T02:11:05.402Z,82.79
2022-10-30T02:12:13.415Z,82.56
2022-10-30T02:13:19.955Z,82.16
2022-10-30T02:14:35.672Z,82.56
2022-10-30T02:15:41.968Z,82.47
2022-10-30T02:16:48.479Z,82.55
2022-10-30T02:17:54.531Z,82.38
2022-10-30T02:18:59.970Z,82.51
2022-10-30T02:20:02.122Z,82.75
2022-10-30T02:21:05.310Z,83.08
2022-10-30T02:22:07.576Z,82.73
2022-10-30T02:23:16.091Z,82.67
2022-10-30T02:24:20.055Z,82.78
2022-10-30T02:25:22.513Z,82.69
2022-10-30T02:26:24.713Z,82.55
2022-10-30T02:27:29.896Z,82.60
2022-10-30T02:28:32.068Z,82.58
2022-10-30T02:29:34.455Z,82.69
2022-10-30T02:30:37.087Z,82.23
2022-10-30T02:31:39.415Z,82.66
2022-10-30T02:32:41.679Z,82.40
2022-10-30T02:33:47.302Z,82.29
2022-10-30T02:34:49.478Z,82.04
2022-10-30T02:35:53.121Z,81.97
2022-10-30T02:36:55.384Z,81.81
2022-10-30T02:37:57.980Z,82.10
2022-10-30T02:39:01.651Z,82.19
2022-10-30T02:40:04.701Z,82.36
2022-10-30T02:41:07.063Z,82.68
2022-10-30T02:42:09.458Z,82.81
2022-10-30T02:43:14.549Z,82.72
2022-10-30T02:44:16.741Z,82.61
2022-10-30T02:45:20.074Z,82.46
2022-10-30T02:46:23.664Z,82.38
2022-10-30T02:47:25.869Z,82.30
2022-10-30T02:48:29.783Z,82.46
2022-10-30T02:49:34.028Z,82.51
2022-10-30T02:50:36.992Z,82.41
2022-10-30T02:51:39.352Z,82.11
2022-10-30T02:52:41.600Z,82.03
2022-10-30T02:53:45.262Z,82.00
2022-10-30T02:54:47.584Z,81.95
2022-10-30T02:55:49.779Z,81.87
2022-10-30T02:56:52.480Z,81.86
2022-10-30T02:57:56.936Z,81.65
2022-10-30T02:58:59.097Z,81.56
2022-10-30T03:00:01.751Z,81.53
2022-10-30T03:01:06.970Z,81.37
2022-10-30T03:02:09.972Z,81.62
2022-10-30T03:03:12.246Z,81.58
2022-10-30T03:04:18.061Z,81.57
2022-10-30T03:05:20.421Z,81.75
2022-10-30T03:06:23.237Z,81.55
2022-10-30T03:07:25.982Z,81.32
2022-10-30T03:08:28.376Z,81.20
2022-10-30T03:09:30.524Z,81.41
2022-10-30T03:10:32.886Z,81.33
2022-10-30T03:11:35.429Z,81.25
2022-10-30T03:12:37.568Z,81.34
2022-10-30T03:13:43.152Z,81.17
2022-10-30T03:14:48.743Z,80.94
2022-10-30T03:15:51.114Z,80.94
2022-10-30T03:16:53.470Z,81.04
2022-10-30T03:17:56.110Z,80.85
2022-10-30T03:18:58.752Z,80.97
2022-10-30T03:20:05.851Z,81.03
2022-10-30T03:21:12.751Z,81.20
2022-10-30T03:22:15.089Z,81.33
2022-10-30T03:23:17.258Z,81.15
2022-10-30T03:24:19.939Z,81.23
2022-10-30T03:25:23.876Z,81.19
2022-10-30T03:26:29.913Z,80.98
2022-10-30T03:27:39.491Z,80.70
2022-10-30T03:28:41.661Z,80.73
2022-10-30T03:29:44.398Z,80.75
2022-10-30T03:30:51.349Z,80.83
2022-10-30T03:31:53.713Z,80.68
2022-10-30T03:32:57.128Z,80.67
2022-10-30T03:33:59.696Z,80.72
2022-10-30T03:35:01.836Z,80.65
2022-10-30T03:36:06.116Z,80.56
2022-10-30T03:37:08.945Z,80.60
2022-10-30T03:38:12.721Z,80.53
2022-10-30T03:39:14.860Z,80.33
2022-10-30T03:40:19.046Z,80.30
2022-10-30T03:41:21.198Z,80.56
2022-10-30T03:42:23.738Z,80.34
2022-10-30T03:43:27.897Z,80.28
2022-10-30T03:44:31.473Z,80.31
2022-10-30T03:45:34.390Z,80.30
2022-10-30T03:46:42.402Z,80.39
2022-10-30T03:47:56.662Z,81.17
2022-10-30T03:48:59.132Z,81.16
2022-10-30T03:50:01.298Z,81.01
2022-10-30T03:51:04.196Z,80.94
2022-10-30T03:52:06.653Z,80.56
2022-10-30T03:53:09.549Z,80.19
2022-10-30T03:54:11.740Z,80.13
2022-10-30T03:55:14.266Z,80.14
2022-10-30T03:56:20.632Z,79.95
2022-10-30T03:57:27.269Z,79.85
2022-10-30T03:58:43.476Z,79.89
2022-10-30T03:59:48.250Z,79.89
2022-10-30T04:01:13.663Z,80.11
2022-10-30T04:03:26.518Z,79.98
2022-10-30T04:04:30.850Z,80.08
2022-10-30T04:05:33.118Z,79.85
2022-10-30T04:06:35.311Z,79.63
2022-10-30T04:07:37.533Z,79.57
2022-10-30T04:08:39.975Z,79.37
2022-10-30T04:09:42.214Z,79.22
2022-10-30T04:10:45.803Z,79.10
2022-10-30T04:11:48.034Z,79.39
2022-10-30T04:12:51.015Z,79.29
2022-10-30T04:13:53.605Z,79.31
2022-10-30T04:14:56.865Z,79.28
2022-10-30T04:15:59.221Z,79.18
2022-10-30T04:17:01.992Z,79.02
2022-10-30T04:18:04.526Z,78.83
2022-10-30T04:19:07.684Z,79.03
2022-10-30T04:20:10.834Z,78.92
2022-10-30T04:21:13.283Z,78.88
2022-10-30T04:22:15.697Z,78.50
2022-10-30T04:23:19.756Z,78.28
2022-10-30T04:24:22.503Z,78.29
2022-10-30T04:25:31.661Z,78.00
2022-10-30T04:26:35.400Z,77.95
2022-10-30T04:27:44.987Z,77.96
2022-10-30T04:28:48.985Z,78.07
2022-10-30T04:29:51.244Z,78.28
2022-10-30T04:30:53.407Z,78.55
2022-10-30T04:31:55.883Z,78.39
2022-10-30T04:32:58.675Z,78.45
2022-10-30T04:34:01.412Z,78.52
2022-10-30T04:35:04.367Z,78.60
2022-10-30T04:36:07.031Z,78.77
2022-10-30T04:37:09.298Z,78.89
2022-10-30T04:38:14.024Z,78.69
2022-10-30T04:39:17.973Z,78.64
2022-10-30T04:40:23.843Z,78.20
2022-10-30T04:41:31.346Z,78.25
2022-10-30T04:42:41.719Z,78.01
2022-10-30T04:43:43.851Z,78.01
2022-10-30T04:44:46.421Z,77.91
2022-10-30T04:45:48.638Z,77.93
2022-10-30T04:46:51.496Z,77.80
2022-10-30T04:48:01.167Z,77.95
2022-10-30T04:49:03.901Z,77.96
2022-10-30T04:50:06.823Z,78.24
2022-10-30T04:51:09.818Z,78.16
2022-10-30T04:52:12.088Z,78.53
2022-10-30T04:53:17.048Z,78.50
2022-10-30T04:54:22.293Z,78.67
2022-10-30T04:55:24.544Z,78.40
2022-10-30T04:56:26.852Z,78.60
2022-10-30T04:57:31.268Z,78.66
2022-10-30T04:58:33.478Z,78.48
2022-10-30T04:59:39.511Z,78.20
2022-10-30T05:00:42.505Z,78.13
2022-10-30T05:01:46.937Z,78.51
2022-10-30T05:02:49.448Z,78.47
2022-10-30T05:03:54.589Z,78.38
2022-10-30T05:04:58.143Z,77.87
2022-10-30T05:06:12.348Z,77.36
2022-10-30T05:07:15.822Z,76.92
2022-10-30T05:08:18.155Z,77.06
2022-10-30T05:09:20.397Z,77.34
2022-10-30T05:10:24.188Z,77.14
2022-10-30T05:11:26.501Z,77.41
2022-10-30T05:12:28.711Z,77.45
2022-10-30T05:13:32.232Z,77.53
2022-10-30T05:14:34.396Z,77.21
2022-10-30T05:15:36.928Z,77.15
2022-10-30T05:16:39.171Z,77.33
2022-10-30T05:17:42.099Z,77.29
2022-10-30T05:18:44.505Z,77.55
2022-10-30T05:19:47.954Z,77.30
2022-10-30T05:20:50.428Z,77.25
2022-10-30T05:21:52.806Z,77.27
2022-10-30T05:22:56.653Z,77.23
2022-10-30T05:23:58.857Z,77.51
2022-10-30T05:25:01.984Z,77.12
2022-10-30T05:26:04.340Z,77.30
2022-10-30T05:27:06.645Z,77.19
2022-10-30T05:28:10.916Z,77.03
2022-10-30T05:29:19.853Z,76.98
2022-10-30T05:30:22.466Z,76.84
2022-10-30T05:31:24.616Z,77.81
2022-10-30T05:32:49.625Z,77.11
2022-10-30T05:33:52.352Z,76.60
2022-10-30T05:34:55.158Z,76.51
2022-10-30T05:35:58.975Z,76.45
2022-10-30T05:37:01.465Z,76.33
2022-10-30T05:38:06.417Z,76.37
2022-10-30T05:39:08.680Z,76.68
2022-10-30T05:40:14.148Z,77.15
2022-10-30T05:41:16.409Z,77.14
2022-10-30T05:42:18.577Z,77.18
2022-10-30T05:43:21.542Z,77.03
2022-10-30T05:44:40.599Z,77.25
2022-10-30T05:45:49.511Z,77.38
2022-10-30T05:46:53.593Z,77.41
2022-10-30T05:48:08.100Z,77.67
2022-10-30T05:49:18.065Z,77.21
2022-10-30T05:50:20.579Z,77.20
2022-10-30T05:51:35.281Z,77.14
2022-10-30T05:52:40.981Z,77.15
2022-10-30T05:53:43.400Z,76.70
2022-10-30T05:54:45.934Z,76.33
2022-10-30T05:55:58.184Z,75.64
2022-10-30T05:57:03.065Z,75.45
2022-10-30T05:58:09.989Z,75.32
2022-10-30T05:59:15.350Z,75.02
2022-10-30T06:00:19.309Z,74.62
2022-10-30T06:01:22.849Z,74.07
2022-10-30T06:02:28.646Z,73.65
2022-10-30T06:03:31.868Z,73.69
2022-10-30T06:04:34.102Z,73.48
2022-10-30T06:05:39.547Z,73.39
2022-10-30T06:06:42.364Z,73.18
2022-10-30T06:07:45.091Z,73.10
2022-10-30T06:08:47.542Z,72.60
2022-10-30T06:10:18.878Z,72.07
2022-10-30T06:11:39.972Z,71.71
2022-10-30T06:12:51.847Z,71.42
2022-10-30T06:14:26.051Z,71.18
2022-10-30T06:15:29.401Z,70.99
2022-10-30T06:17:54.427Z,71.00
2022-10-30T06:19:15.496Z,70.87
2022-10-30T06:20:23.616Z,70.71
2022-10-30T06:21:57.146Z,70.66
2022-10-30T06:23:05.978Z,70.41
2022-10-30T06:24:19.314Z,69.85
2022-10-30T06:25:41.053Z,69.72
2022-10-30T06:26:56.864Z,69.41
2022-10-30T06:28:01.637Z,69.24
2022-10-30T06:29:06.127Z,69.62
2022-10-30T06:30:08.661Z,69.83
2022-10-30T06:31:11.172Z,69.73
2022-10-30T06:32:14.181Z,69.65
2022-10-30T06:33:18.686Z,69.77
2022-10-30T06:34:25.985Z,69.96
2022-10-30T06:35:31.093Z,70.51
2022-10-30T06:36:33.439Z,70.67
2022-10-30T06:37:35.894Z,70.49
2022-10-30T06:38:44.123Z,70.64
2022-10-30T06:39:48.703Z,71.00
2022-10-30T06:41:19.772Z,71.25
2022-10-30T06:42:47.156Z,71.45
2022-10-30T06:44:08.457Z,71.89
2022-10-30T06:45:14.000Z,71.69
2022-10-30T06:46:16.550Z,71.81
2022-10-30T06:47:19.678Z,71.57
2022-10-30T06:48:21.886Z,71.82
2022-10-30T06:49:28.058Z,71.54
2022-10-30T06:50:30.663Z,71.57
2022-10-30T06:51:32.869Z,71.52
2022-10-30T06:52:37.099Z,71.62
2022-10-30T06:53:39.500Z,71.55
2022-10-30T06:55:05.203Z,71.28
2022-10-30T06:56:25.284Z,71.86
2022-10-30T06:57:42.135Z,72.14
2022-10-30T06:58:57.949Z,72.95
2022-10-30T07:00:12.903Z,73.56
2022-10-30T07:01:46.001Z,73.47
2022-10-30T07:02:56.909Z,73.58
2022-10-30T07:03:59.667Z,73.45
2022-10-30T07:05:02.096Z,73.43
2022-10-30T07:06:04.883Z,73.48
2022-10-30T07:07:08.194Z,73.82
2022-10-30T07:08:10.715Z,74.62
2022-10-30T07:09:12.929Z,75.54
2022-10-30T07:10:15.804Z,76.15
2022-10-30T07:11:36.391Z,76.73
2022-10-30T07:12:56.100Z,76.57
2022-10-30T07:14:16.951Z,76.50
2022-10-30T07:17:00.179Z,76.06
2022-10-30T07:18:04.496Z,75.99
2022-10-30T07:19:10.389Z,75.93
2022-10-30T07:20:13.289Z,75.84
2022-10-30T07:21:16.246Z,76.12
2022-10-30T07:22:18.768Z,76.10
2022-10-30T07:23:26.261Z,75.56
2022-10-30T07:24:35.500Z,75.23
2022-10-30T07:25:58.375Z,74.94
2022-10-30T07:27:11.482Z,74.40
2022-10-30T07:28:21.011Z,73.79
2022-10-30T07:29:45.849Z,73.50
2022-10-30T07:30:54.453Z,73.52
2022-10-30T07:32:15.155Z,74.00
2022-10-30T07:33:35.795Z,73.91
2022-10-30T07:34:46.722Z,73.65
2022-10-30T07:36:15.141Z,73.03
2022-10-30T07:37:22.528Z,72.31
2022-10-30T07:38:34.211Z,71.63
2022-10-30T07:39:50.129Z,70.63
2022-10-30T07:40:58.948Z,69.89
2022-10-30T07:42:22.870Z,68.91
2022-10-30T07:43:45.998Z,68.44
2022-10-30T07:45:07.435Z,68.39
2022-10-30T07:46:15.088Z,67.58
2022-10-30T07:47:41.891Z,67.05
2022-10-30T07:48:58.445Z,66.51
2022-10-30T07:50:12.213Z,66.52
2022-10-30T07:51:15.459Z,66.02
2022-10-30T07:52:18.285Z,65.41
2022-10-30T07:53:23.559Z,65.16
2022-10-30T07:54:26.306Z,64.64
2022-10-30T07:55:29.162Z,64.67
2022-10-30T07:57:06.691Z,64.19
2022-10-30T07:58:27.672Z,63.45
2022-10-30T08:00:08.399Z,63.15
2022-10-30T08:01:16.620Z,63.04
2022-10-30T08:02:19.354Z,62.75
2022-10-30T08:03:49.090Z,63.09
2022-10-30T08:05:02.702Z,62.25
2022-10-30T08:06:15.987Z,61.57
2022-10-30T08:07:19.900Z,61.68
2022-10-30T08:08:22.284Z,60.67
2022-10-30T08:09:33.060Z,60.62
2022-10-30T08:10:37.837Z,60.51
2022-10-30T08:11:40.029Z,60.45
2022-10-30T08:12:43.983Z,60.20
2022-10-30T08:13:46.720Z,59.23
2022-10-30T08:14:49.469Z,59.19
2022-10-30T08:15:51.900Z,59.28
2022-10-30T08:16:54.097Z,59.99
2022-10-30T08:17:56.747Z,60.03
2022-10-30T08:18:59.340Z,59.64
2022-10-30T08:20:02.865Z,59.10
2022-10-30T08:21:06.181Z,58.29
2022-10-30T08:22:10.272Z,58.11
2022-10-30T08:23:12.773Z,57.72
2022-10-30T08:24:15.086Z,57.97
2022-10-30T08:25:23.444Z,57.40
2022-10-30T08:26:25.786Z,57.22
2022-10-30T08:27:28.573Z,57.64
2022-10-30T08:28:33.083Z,58.17
2022-10-30T08:29:37.191Z,58.66
2022-10-30T08:30:40.188Z,58.77
2022-10-30T08:31:48.772Z,59.24
2022-10-30T08:33:02.571Z,59.18
2022-10-30T08:34:24.087Z,58.45
2022-10-30T08:35:31.067Z,58.79
2022-10-30T08:36:35.049Z,58.30
2022-10-30T08:37:38.079Z,57.74
2022-10-30T08:38:40.252Z,57.39
2022-10-30T08:39:50.457Z,57.17
2022-10-30T08:41:11.749Z,56.75
2022-10-30T08:42:23.421Z,56.79
2022-10-30T08:43:26.617Z,57.04
2022-10-30T08:44:28.898Z,56.86
2022-10-30T08:46:00.882Z,56.81
2022-10-30T08:47:03.334Z,56.91
2022-10-30T08:48:07.146Z,56.17
2022-10-30T08:49:13.277Z,56.02
2022-10-30T08:51:33.786Z,56.22
2022-10-30T08:52:36.192Z,55.89
2022-10-30T08:53:38.359Z,55.44
2022-10-30T08:54:46.371Z,55.17
2022-10-30T08:55:48.562Z,54.31
2022-10-30T08:56:58.832Z,53.99
2022-10-30T08:58:01.537Z,53.62
2022-10-30T08:59:03.832Z,53.82
2022-10-30T09:00:07.159Z,53.22
2022-10-30T09:01:44.372Z,53.17
2022-10-30T09:02:56.517Z,53.36
2022-10-30T09:04:07.760Z,52.78
2022-10-30T09:05:25.333Z,52.45
2022-10-30T09:06:46.359Z,52.82
2022-10-30T09:08:11.444Z,52.22
2022-10-30T09:09:45.687Z,51.87
2022-10-30T09:10:47.927Z,51.72
2022-10-30T09:11:50.094Z,52.07
2022-10-30T09:12:57.184Z,51.85
2022-10-30T09:13:59.516Z,51.60
2022-10-30T09:15:01.752Z,51.40
2022-10-30T09:16:06.563Z,51.31
2022-10-30T09:17:11.348Z,51.06
2022-10-30T09:18:16.091Z,51.04
2022-10-30T09:19:19.042Z,51.06
2022-10-30T09:20:24.847Z,51.25
2022-10-30T09:21:28.320Z,50.91
2022-10-30T09:22:30.793Z,51.00
2022-10-30T09:23:33.024Z,51.03
2022-10-30T09:24:55.095Z,50.93
2022-10-30T09:26:29.596Z,50.87
2022-10-30T09:27:39.686Z,50.44
2022-10-30T09:28:43.567Z,50.52
2022-10-30T09:30:21.258Z,50.22
2022-10-30T09:31:27.400Z,50.69
2022-10-30T09:32:29.779Z,50.74
2022-10-30T09:33:44.968Z,50.56
2022-10-30T09:35:07.877Z,50.37
2022-10-30T09:36:16.721Z,50.25
2022-10-30T09:37:23.164Z,49.98
2022-10-30T09:38:29.751Z,49.88
2022-10-30T09:39:32.635Z,50.03
2022-10-30T09:40:48.285Z,50.25
2022-10-30T09:42:10.222Z,49.99
2022-10-30T09:43:34.517Z,49.93
2022-10-30T09:45:15.303Z,50.10
2022-10-30T09:46:46.054Z,49.75
2022-10-30T09:48:17.905Z,49.76
2022-10-30T09:49:51.488Z,49.53
2022-10-30T09:51:25.924Z,48.81
2022-10-30T09:52:35.485Z,48.99
2022-10-30T09:54:15.431Z,49.49
2022-10-30T09:55:40.821Z,49.21
2022-10-30T09:56:51.594Z,49.26
2022-10-30T09:58:05.226Z,49.61
2022-10-30T09:59:27.198Z,49.74
2022-10-30T10:00:45.132Z,49.70
2022-10-30T10:02:04.197Z,49.94
2022-10-30T10:03:19.135Z,49.97
2022-10-30T10:04:54.859Z,50.18
2022-10-30T10:06:19.581Z,50.01
2022-10-30T10:07:43.618Z,50.15
2022-10-30T10:09:17.338Z,49.92
2022-10-30T10:10:45.587Z,50.38
2022-10-30T10:12:07.509Z,50.41
2022-10-30T10:13:22.663Z,50.40
2022-10-30T10:14:32.934Z,50.77
2022-10-30T10:15:49.742Z,50.65
2022-10-30T10:16:53.845Z,50.57
2022-10-30T10:17:57.112Z,50.45
2022-10-30T10:19:21.536Z,50.79
2022-10-30T10:20:35.074Z,50.65
2022-10-30T10:21:45.425Z,51.02
2022-10-30T10:22:51.348Z,51.09
2022-10-30T10:23:57.358Z,50.99
2022-10-30T10:24:59.995Z,50.88
2022-10-30T10:26:23.535Z,50.92
2022-10-30T10:28:03.295Z,50.76
2022-10-30T10:29:22.245Z,50.91
2022-10-30T10:30:25.985Z,50.87
2022-10-30T10:31:43.284Z,51.27
2022-10-30T10:33:01.435Z,51.52
2022-10-30T10:34:39.693Z,51.73
2022-10-30T10:35:59.777Z,51.49
2022-10-30T10:37:49.689Z,51.71
2022-10-30T10:39:15.787Z,51.86
2022-10-30T10:40:22.390Z,51.85
2022-10-30T10:41:32.249Z,52.01
2022-10-30T10:43:04.047Z,51.97
2022-10-30T10:44:35.229Z,52.13
2022-10-30T10:45:59.860Z,52.03
2022-10-30T10:47:10.726Z,51.81
2022-10-30T10:48:28.032Z,51.71
2022-10-30T10:49:48.149Z,51.77
2022-10-30T10:50:57.687Z,51.94
2022-10-30T10:52:05.851Z,51.59
2022-10-30T10:53:21.941Z,51.53
2022-10-30T10:54:42.882Z,51.62
2022-10-30T10:55:49.812Z,51.69
2022-10-30T10:56:52.123Z,51.84
2022-10-30T10:57:59.823Z,51.80
2022-10-30T10:59:08.947Z,51.31
2022-10-30T11:00:18.887Z,51.11
2022-10-30T11:01:31.513Z,50.93
2022-10-30T11:02:40.492Z,51.16
2022-10-30T11:03:54.954Z,51.05
2022-10-30T11:05:06.860Z,50.78
2022-10-30T11:06:24.562Z,50.41
2022-10-30T11:07:32.405Z,50.27
2022-10-30T11:08:37.909Z,50.03
2022-10-30T11:09:41.489Z,50.14
2022-10-30T11:10:44.029Z,49.63
2022-10-30T11:11:51.681Z,49.30
2022-10-30T11:12:54.055Z,48.80
2022-10-30T11:13:56.456Z,48.79
2022-10-30T11:15:01.892Z,49.08
2022-10-30T11:16:22.858Z,48.81
2022-10-30T11:17:29.147Z,49.17
2022-10-30T11:18:32.207Z,49.06
2022-10-30T11:19:34.454Z,48.80
2022-10-30T11:20:51.498Z,48.98
2022-10-30T11:21:55.704Z,48.98
2022-10-30T11:22:58.033Z,48.98
2022-10-30T11:24:00.366Z,49.05
2022-10-30T11:25:26.907Z,48.69
2022-10-30T11:26:34.331Z,48.77
2022-10-30T11:27:37.004Z,48.57
2022-10-30T11:28:45.973Z,48.81
2022-10-30T11:29:53.751Z,48.88
2022-10-30T11:31:21.776Z,48.99
2022-10-30T11:32:29.151Z,49.05
2022-10-30T11:33:31.308Z,48.87
2022-10-30T11:34:36.544Z,48.72
2022-10-30T11:35:43.320Z,48.64
2022-10-30T11:36:46.792Z,48.94
2022-10-30T11:37:51.423Z,49.31
2022-10-30T11:38:58.206Z,49.39
2022-10-30T11:40:17.536Z,49.40
2022-10-30T11:41:20.644Z,49.69
2022-10-30T11:42:23.034Z,49.14
2022-10-30T11:43:26.210Z,49.07
2022-10-30T11:44:42.319Z,48.91
2022-10-30T11:45:45.276Z,49.09
2022-10-30T11:46:47.709Z,48.26
2022-10-30T11:47:50.075Z,48.29
2022-10-30T11:48:55.006Z,48.29
2022-10-30T11:50:00.313Z,48.20
2022-10-30T11:51:03.801Z,48.25
2022-10-30T11:52:07.961Z,48.53
2022-10-30T11:53:13.233Z,48.37
2022-10-30T11:54:21.516Z,48.42
2022-10-30T11:55:30.029Z,48.52
2022-10-30T11:56:34.374Z,48.62
2022-10-30T11:57:46.769Z,48.63
2022-10-30T11:58:58.776Z,48.88
2022-10-30T12:00:05.532Z,48.79
2022-10-30T12:01:17.074Z,48.70
2022-10-30T12:02:28.602Z,48.98
2022-10-30T12:03:38.164Z,48.24
2022-10-30T12:04:40.362Z,47.87
2022-10-30T12:05:44.986Z,48.25
2022-10-30T12:07:11.129Z,48.35
2022-10-30T12:08:19.537Z,48.39
2022-10-30T12:09:22.889Z,48.22
2022-10-30T12:10:30.520Z,48.37
2022-10-30T12:11:34.696Z,48.36
2022-10-30T12:12:42.035Z,48.37
2022-10-30T12:13:44.702Z,48.36
2022-10-30T12:14:46.884Z,48.05
2022-10-30T12:15:51.682Z,48.08
2022-10-30T12:16:57.659Z,48.02
2022-10-30T12:18:01.801Z,48.10
2022-10-30T12:19:07.091Z,47.56
2022-10-30T12:20:15.069Z,47.82
2022-10-30T12:21:19.411Z,47.88
2022-10-30T12:22:29.314Z,47.92
2022-10-30T12:23:32.591Z,47.98
2022-10-30T12:24:38.740Z,48.34
2022-10-30T12:25:48.024Z,48.06
2022-10-30T12:26:54.495Z,47.70
2022-10-30T12:28:04.846Z,47.71
2022-10-30T12:29:15.189Z,47.96
2022-10-30T12:30:20.414Z,48.05
2022-10-30T12:31:55.287Z,47.83
2022-10-30T12:33:04.435Z,47.56
2022-10-30T12:34:24.904Z,47.64
2022-10-30T12:35:39.449Z,46.82
2022-10-30T12:36:50.593Z,46.95
2022-10-30T12:37:54.787Z,46.98
2022-10-30T12:39:05.367Z,47.29
2022-10-30T12:40:10.763Z,47.41
2022-10-30T12:41:25.246Z,47.57
2022-10-30T12:42:28.929Z,47.93
2022-10-30T12:43:35.536Z,47.80
2022-10-30T12:44:43.436Z,48.38
2022-10-30T12:45:52.684Z,48.57
2022-10-30T12:47:09.636Z,48.42
2022-10-30T12:48:23.620Z,48.63
2022-10-30T12:49:35.991Z,48.23
2022-10-30T12:50:57.079Z,48.40
2022-10-30T12:52:14.163Z,48.54
2022-10-30T12:53:29.006Z,48.62
2022-10-30T12:54:43.056Z,48.71
2022-10-30T12:55:51.174Z,48.75
2022-10-30T12:57:07.359Z,48.67
2022-10-30T12:58:27.977Z,48.26
2022-10-30T12:59:45.402Z,47.82
2022-10-30T13:01:09.707Z,48.36
2022-10-30T13:02:32.719Z,48.45
2022-10-30T13:03:41.425Z,48.15
2022-10-30T13:04:48.234Z,48.50
2022-10-30T13:06:16.643Z,47.85
2022-10-30T13:07:26.725Z,48.11
2022-10-30T13:08:56.058Z,48.26
2022-10-30T13:10:13.392Z,47.92
2022-10-30T13:11:39.801Z,48.18
2022-10-30T13:12:44.872Z,48.17
2022-10-30T13:13:50.779Z,48.35
2022-10-30T13:15:01.965Z,48.34
2022-10-30T13:16:11.394Z,48.51
2022-10-30T13:17:14.784Z,48.34
2022-10-30T13:18:26.883Z,47.73
2022-10-30T13:19:29.166Z,47.49
2022-10-30T13:20:31.914Z,47.63
2022-10-30T13:21:56.197Z,47.21
2022-10-30T13:23:11.205Z,47.16
2022-10-30T13:24:25.286Z,47.20
2022-10-30T13:25:48.314Z,47.08
2022-10-30T13:26:53.279Z,47.10
2022-10-30T13:27:58.274Z,47.49
2022-10-30T13:29:12.294Z,47.80
2022-10-30T13:30:22.450Z,48.07
2022-10-30T13:31:39.315Z,48.02
2022-10-30T13:32:57.617Z,48.14
2022-10-30T13:34:22.697Z,47.84
2022-10-30T13:35:49.274Z,48.14
2022-10-30T13:37:12.917Z,48.21
2022-10-30T13:38:30.075Z,48.55
2022-10-30T13:39:42.208Z,48.59
2022-10-30T13:40:54.403Z,48.78
2022-10-30T13:42:03.111Z,48.98
2022-10-30T13:43:15.767Z,49.20
2022-10-30T13:44:39.167Z,48.62
2022-10-30T13:46:19.349Z,49.04
2022-10-30T13:47:30.949Z,48.45
2022-10-30T13:48:51.340Z,47.80
2022-10-30T13:50:22.375Z,47.49
2022-10-30T13:51:33.463Z,47.29
2022-10-30T13:52:37.079Z,47.66
2022-10-30T13:53:43.625Z,47.78
2022-10-30T13:55:13.450Z,48.35
2022-10-30T13:56:18.811Z,47.92
2022-10-30T13:57:20.993Z,47.69
2022-10-30T13:58:48.129Z,47.27
2022-10-30T14:00:02.190Z,47.53
2022-10-30T14:01:27.495Z,47.89
2022-10-30T14:02:47.959Z,48.31
2022-10-30T14:04:05.477Z,48.67
2022-10-30T14:05:19.460Z,48.67
2022-10-30T14:06:21.612Z,48.55
2022-10-30T14:07:44.847Z,48.55
2022-10-30T14:08:58.807Z,48.55
2022-10-30T14:10:16.223Z,48.62
2022-10-30T14:11:18.435Z,48.75
2022-10-30T14:12:45.830Z,48.63
2022-10-30T14:14:05.038Z,48.51
2022-10-30T14:15:19.479Z,48.29
2022-10-30T14:16:30.726Z,48.56
2022-10-30T14:17:33.079Z,48.57
2022-10-30T14:18:58.669Z,48.57
2022-10-30T14:20:12.488Z,48.49
2022-10-30T14:21:51.728Z,48.44
2022-10-30T14:23:14.623Z,48.72
2022-10-30T14:24:19.887Z,48.75
2022-10-30T14:25:23.139Z,49.45
2022-10-30T14:26:26.149Z,49.29
2022-10-30T14:27:33.380Z,49.69
2022-10-30T14:28:45.218Z,49.68
2022-10-30T14:29:51.061Z,49.64
2022-10-30T14:31:11.135Z,49.70
2022-10-30T14:32:13.243Z,49.49
2022-10-30T14:33:57.948Z,49.44
2022-10-30T14:35:00.242Z,49.59
2022-10-30T14:36:24.762Z,49.79
2022-10-30T14:37:27.113Z,50.15
2022-10-30T14:38:35.478Z,50.12
2022-10-30T14:39:41.289Z,50.34
2022-10-30T14:40:53.500Z,50.38
2022-10-30T14:42:17.634Z,50.39
2022-10-30T14:43:19.790Z,50.83
2022-10-30T14:44:52.196Z,51.05
2022-10-30T14:46:04.380Z,51.60
2022-10-30T14:47:20.865Z,51.85
2022-10-30T14:48:31.819Z,52.43
2022-10-30T14:49:46.388Z,52.90
2022-10-30T14:51:02.542Z,53.27
2022-10-30T14:52:15.473Z,53.21
2022-10-30T14:53:35.815Z,53.28
2022-10-30T14:54:56.815Z,53.46
2022-10-30T14:56:18.803Z,53.42
2022-10-30T14:57:45.238Z,53.61
2022-10-30T14:59:28.850Z,53.82
2022-10-30T15:00:34.912Z,54.00
2022-10-30T15:02:12.668Z,54.30
2022-10-30T15:03:51.276Z,54.22
2022-10-30T15:04:59.189Z,54.64
2022-10-30T15:06:22.854Z,54.76